Time;durP1;ratioP1;P1;durP2;ratioP2;P2;SDS_P1;SDS_P2;PMS_P1;PMS_P2;Temp;Humidity;BMP_temperature;BMP_pressure;BME280_temperature;BME280_humidity;BME280_pressure;Samples;Min_cycle;Max_cycle;Signal;HPM_P1;HPM_P2
2021/03/10 00:02:16;;;;;;;23.73;10.48;;;1.50;99.90;;;;;;5041596;28;20048;-72
2021/03/10 00:04:42;;;;;;;22.90;10.65;;;1.60;99.90;;;;;;5047418;28;20403;-72
2021/03/10 00:07:08;;;;;;;20.55;9.85;;;1.60;99.90;;;;;;5047662;28;20275;-72
2021/03/10 00:09:34;;;;;;;20.83;10.00;;;1.60;99.90;;;;;;5051391;28;20040;-72
2021/03/10 00:11:59;;;;;;;21.80;9.82;;;1.50;99.90;;;;;;5050033;28;20047;-72
2021/03/10 00:14:25;;;;;;;25.15;10.45;;;1.50;99.90;;;;;;5047345;28;20044;-72
2021/03/10 00:16:50;;;;;;;21.08;11.25;;;1.50;99.90;;;;;;5046740;28;20040;-72
2021/03/10 00:19:16;;;;;;;23.77;10.80;;;1.60;99.90;;;;;;5047922;28;20478;-72
2021/03/10 00:21:42;;;;;;;23.70;10.43;;;1.60;99.90;;;;;;5046323;28;20033;-72
2021/03/10 00:24:08;;;;;;;22.70;10.52;;;1.60;99.90;;;;;;5046996;28;20025;-72
2021/03/10 00:26:34;;;;;;;22.00;10.65;;;1.60;99.90;;;;;;5046722;28;20946;-72
2021/03/10 00:28:59;;;;;;;16.67;9.48;;;1.60;99.90;;;;;;5046144;28;20021;-72
2021/03/10 00:31:25;;;;;;;19.63;9.68;;;1.50;99.90;;;;;;5043946;28;20492;-72
2021/03/10 00:33:51;;;;;;;21.80;9.75;;;1.50;99.90;;;;;;5050060;28;20028;-72
2021/03/10 00:36:16;;;;;;;18.90;10.23;;;1.50;99.90;;;;;;5044591;28;20504;-72
2021/03/10 00:38:42;;;;;;;19.45;9.98;;;1.50;99.90;;;;;;5045612;28;20044;-72
2021/03/10 00:41:08;;;;;;;18.75;9.27;;;1.50;99.90;;;;;;5046216;28;20396;-72
2021/03/10 00:43:33;;;;;;;20.95;10.32;;;1.50;99.90;;;;;;5046335;28;20421;-72
2021/03/10 00:45:59;;;;;;;15.98;9.18;;;1.50;99.90;;;;;;5046244;28;20100;-72
2021/03/10 00:48:25;;;;;;;17.58;9.07;;;1.50;99.90;;;;;;5046141;28;20037;-72
2021/03/10 00:50:50;;;;;;;21.80;10.25;;;1.50;99.90;;;;;;5046441;28;20480;-72
2021/03/10 00:53:16;;;;;;;24.05;9.70;;;1.60;99.90;;;;;;5046719;28;20025;-72
2021/03/10 00:55:42;;;;;;;18.70;8.85;;;1.60;99.90;;;;;;5046674;28;20087;-73
2021/03/10 00:58:07;;;;;;;17.38;8.73;;;1.60;99.90;;;;;;5045984;28;20033;-72
2021/03/10 01:00:33;;;;;;;19.92;9.10;;;1.60;99.90;;;;;;5043938;28;20035;-72
2021/03/10 01:02:59;;;;;;;16.92;8.88;;;1.60;99.90;;;;;;5042586;28;20484;-72
2021/03/10 01:05:24;;;;;;;20.40;10.57;;;1.60;99.90;;;;;;5046456;28;20075;-73
2021/03/10 01:07:50;;;;;;;22.98;10.90;;;1.60;99.90;;;;;;5046187;28;20029;-73
2021/03/10 01:10:17;;;;;;;22.85;10.90;;;1.80;99.90;;;;;;5046962;28;20120;-72
2021/03/10 01:12:43;;;;;;;24.23;11.05;;;1.80;99.90;;;;;;5045613;28;20534;-72
2021/03/10 01:15:17;;;;;;;18.60;10.25;;;1.70;99.90;;;;;;5046867;28;20116;-72
2021/03/10 01:17:45;;;;;;;23.77;9.52;;;1.70;99.90;;;;;;5044762;28;20033;-73
2021/03/10 01:20:13;;;;;;;22.10;9.75;;;1.70;99.90;;;;;;5046306;28;20025;-73
2021/03/10 01:22:39;;;;;;;22.88;10.93;;;1.70;99.90;;;;;;5045816;28;20067;-73
2021/03/10 01:25:05;;;;;;;26.42;10.80;;;1.60;99.90;;;;;;5047099;28;20049;-73
2021/03/10 01:27:31;;;;;;;21.10;9.90;;;1.60;99.90;;;;;;5045696;28;20025;-72
2021/03/10 01:29:57;;;;;;;25.08;10.57;;;1.60;99.90;;;;;;5045565;28;20090;-73
2021/03/10 01:32:24;;;;;;;24.40;11.05;;;1.60;99.90;;;;;;5045160;28;20655;-72
2021/03/10 01:34:50;;;;;;;18.73;10.10;;;1.60;99.90;;;;;;5045931;28;20029;-73
2021/03/10 01:37:16;;;;;;;24.13;10.75;;;1.60;99.90;;;;;;5046305;28;20025;-73
2021/03/10 01:39:41;;;;;;;23.48;9.73;;;1.60;99.90;;;;;;5046533;28;20044;-73
2021/03/10 01:42:08;;;;;;;20.20;9.80;;;1.60;99.90;;;;;;5045351;28;20029;-72
2021/03/10 01:44:34;;;;;;;25.35;10.30;;;1.70;99.90;;;;;;5046769;28;20033;-73
2021/03/10 01:47:01;;;;;;;20.83;10.25;;;1.70;99.90;;;;;;5045832;28;20770;-73
2021/03/10 01:49:28;;;;;;;19.98;9.77;;;1.60;99.90;;;;;;5046275;28;20041;-73
2021/03/10 01:51:53;;;;;;;22.33;9.98;;;1.70;99.90;;;;;;5038542;28;20533;-73
2021/03/10 01:54:19;;;;;;;20.42;9.25;;;1.70;99.90;;;;;;5049968;28;20032;-73
2021/03/10 01:56:46;;;;;;;20.75;10.25;;;1.70;99.90;;;;;;5049029;28;20202;-73
2021/03/10 01:59:11;;;;;;;22.23;9.70;;;1.70;99.90;;;;;;5047563;28;20029;-73
2021/03/10 02:01:37;;;;;;;18.00;8.70;;;1.70;99.90;;;;;;5045724;28;20391;-73
2021/03/10 02:04:08;;;;;;;15.88;8.15;;;1.60;99.90;;;;;;5049118;28;20044;-73
2021/03/10 02:06:54;;;;;;;19.85;9.23;;;1.60;99.90;;;;;;5046944;28;20029;-73
2021/03/10 02:09:41;;;;;;;19.00;8.88;;;1.70;99.90;;;;;;5045242;28;20074;-73
2021/03/10 02:12:24;;;;;;;18.67;9.07;;;1.70;99.90;;;;;;5049277;28;20047;-73
2021/03/10 02:15:02;;;;;;;16.05;8.55;;;1.70;99.90;;;;;;5038437;28;20029;-73
2021/03/10 02:17:35;;;;;;;17.20;8.70;;;1.70;99.90;;;;;;5047402;28;20037;-73
2021/03/10 02:20:22;;;;;;;19.38;9.23;;;1.70;99.90;;;;;;5048983;28;20112;-73
2021/03/10 02:23:00;;;;;;;14.48;8.35;;;1.70;99.90;;;;;;5046646;28;20047;-73
2021/03/10 02:26:04;;;;;;;17.15;8.80;;;1.70;99.90;;;;;;5048600;28;20048;-73
2021/03/10 02:28:31;;;;;;;19.25;9.15;;;1.70;99.90;;;;;;5048036;28;20442;-73
2021/03/10 02:30:57;;;;;;;19.63;9.50;;;1.70;99.90;;;;;;5052729;28;20123;-73
2021/03/10 02:33:29;;;;;;;21.15;9.43;;;1.70;99.90;;;;;;5053230;28;20516;-73
2021/03/10 02:36:03;;;;;;;17.02;8.05;;;1.70;99.90;;;;;;5045414;28;20035;-73
2021/03/10 02:38:29;;;;;;;19.37;9.50;;;1.70;99.90;;;;;;5051571;28;20029;-73
2021/03/10 02:40:56;;;;;;;19.80;8.35;;;1.80;99.90;;;;;;5052521;28;20282;-72
2021/03/10 02:43:23;;;;;;;18.98;9.32;;;1.70;99.90;;;;;;5053301;28;20395;-73
2021/03/10 02:45:54;;;;;;;21.02;9.75;;;1.70;99.90;;;;;;5052823;28;20036;-73
2021/03/10 02:48:21;;;;;;;20.83;9.27;;;1.70;99.90;;;;;;5052439;28;20120;-73
2021/03/10 02:50:48;;;;;;;19.75;10.05;;;1.70;99.90;;;;;;5052660;28;20034;-73
2021/03/10 02:53:16;;;;;;;18.42;9.15;;;1.60;99.90;;;;;;5053039;28;20112;-73
2021/03/10 02:55:41;;;;;;;17.83;8.93;;;1.60;99.90;;;;;;5052828;28;20032;-73
2021/03/10 02:58:08;;;;;;;18.38;8.93;;;1.60;99.90;;;;;;5052222;28;20025;-73
2021/03/10 03:00:35;;;;;;;16.73;9.35;;;1.60;99.90;;;;;;5052355;28;20487;-73
2021/03/10 03:03:01;;;;;;;17.88;9.02;;;1.60;99.90;;;;;;5052451;28;20048;-73
2021/03/10 03:05:27;;;;;;;17.35;9.55;;;1.60;99.90;;;;;;5052599;28;20025;-73
2021/03/10 03:07:53;;;;;;;18.25;9.02;;;1.60;99.90;;;;;;5052230;28;20540;-73
2021/03/10 03:10:32;;;;;;;19.92;9.57;;;1.60;99.90;;;;;;5052219;28;20041;-73
2021/03/10 03:13:01;;;;;;;20.65;9.10;;;1.60;99.90;;;;;;5052483;28;20033;-73
2021/03/10 03:15:27;;;;;;;19.10;8.93;;;1.70;99.90;;;;;;5052622;28;20503;-73
2021/03/10 03:17:56;;;;;;;19.08;8.90;;;1.60;99.90;;;;;;5048940;28;20036;-73
2021/03/10 03:20:23;;;;;;;18.02;8.70;;;1.60;99.90;;;;;;5052420;28;20099;-73
2021/03/10 03:22:55;;;;;;;21.58;10.23;;;1.60;99.90;;;;;;5050916;28;20430;-73
2021/03/10 03:25:26;;;;;;;14.98;8.25;;;1.70;99.90;;;;;;5049979;28;20029;-73
2021/03/10 03:27:59;;;;;;;17.25;9.10;;;1.70;99.90;;;;;;5051556;28;20510;-73
2021/03/10 03:30:25;;;;;;;17.73;8.88;;;1.60;99.90;;;;;;5051696;28;20032;-73
2021/03/10 03:32:53;;;;;;;17.35;8.85;;;1.70;99.90;;;;;;5051834;28;20471;-73
2021/03/10 03:35:20;;;;;;;17.73;8.98;;;1.60;99.90;;;;;;5052240;28;20167;-73
2021/03/10 03:37:48;;;;;;;15.43;8.23;;;1.70;99.90;;;;;;5051693;28;20491;-73
2021/03/10 03:40:15;;;;;;;18.60;8.68;;;1.70;99.90;;;;;;5051343;28;20021;-73
2021/03/10 03:42:41;;;;;;;23.00;10.00;;;1.70;99.90;;;;;;5051366;28;20029;-73
2021/03/10 03:45:08;;;;;;;19.33;9.05;;;1.70;99.90;;;;;;5051830;28;20033;-73
2021/03/10 03:47:35;;;;;;;20.15;9.23;;;1.60;99.90;;;;;;5051304;28;20468;-73
2021/03/10 03:50:01;;;;;;;18.23;8.60;;;1.60;99.90;;;;;;5051746;28;20107;-73
2021/03/10 03:52:26;;;;;;;20.10;9.77;;;1.60;99.90;;;;;;5051306;28;20044;-73
2021/03/10 03:54:52;;;;;;;16.38;9.13;;;1.60;99.90;;;;;;5051465;28;20112;-73
2021/03/10 03:57:18;;;;;;;16.85;8.57;;;1.70;99.90;;;;;;5051120;28;20040;-73
2021/03/10 03:59:43;;;;;;;20.48;9.27;;;1.70;99.90;;;;;;5051318;28;20505;-73
2021/03/10 04:02:09;;;;;;;20.38;9.40;;;1.70;99.90;;;;;;5050620;28;20591;-73
2021/03/10 04:04:35;;;;;;;17.35;9.02;;;1.70;99.90;;;;;;5051388;28;20446;-73
2021/03/10 04:07:03;;;;;;;18.55;8.57;;;1.70;99.90;;;;;;5051077;28;20040;-73
2021/03/10 04:09:29;;;;;;;17.38;8.82;;;1.60;99.90;;;;;;5051197;28;20041;-73
2021/03/10 04:11:58;;;;;;;15.05;7.50;;;1.60;99.90;;;;;;5051037;28;20043;-73
2021/03/10 04:14:24;;;;;;;17.27;8.30;;;1.60;99.90;;;;;;5051010;28;20068;-73
2021/03/10 04:16:49;;;;;;;13.95;7.82;;;1.60;99.90;;;;;;5050713;28;20060;-73
2021/03/10 04:19:15;;;;;;;17.45;8.13;;;1.70;99.90;;;;;;5051290;28;20041;-73
2021/03/10 04:21:41;;;;;;;17.98;8.40;;;1.60;99.90;;;;;;5083046;28;20036;-73
2021/03/10 04:24:07;;;;;;;19.65;8.45;;;1.60;99.90;;;;;;5050915;28;20029;-73
2021/03/10 04:26:33;;;;;;;17.73;8.65;;;1.60;99.90;;;;;;5050757;28;20111;-73
2021/03/10 04:28:58;;;;;;;20.45;9.55;;;1.60;99.90;;;;;;5047283;28;20100;-73
2021/03/10 04:31:24;;;;;;;16.38;8.55;;;1.60;99.90;;;;;;5049180;28;20391;-73
2021/03/10 04:33:50;;;;;;;16.98;8.60;;;1.60;99.90;;;;;;5050859;28;20037;-73
2021/03/10 04:36:15;;;;;;;18.33;9.45;;;1.60;99.90;;;;;;5050515;28;20029;-73
2021/03/10 04:38:41;;;;;;;17.80;9.35;;;1.60;99.90;;;;;;5049699;28;20392;-73
2021/03/10 04:41:10;;;;;;;19.27;9.30;;;1.60;99.90;;;;;;5050011;28;20033;-73
2021/03/10 04:43:36;;;;;;;15.73;8.52;;;1.60;99.90;;;;;;5048353;28;20029;-73
2021/03/10 04:46:01;;;;;;;18.65;8.63;;;1.60;99.90;;;;;;5050704;28;20032;-73
2021/03/10 04:48:27;;;;;;;17.20;8.68;;;1.60;99.90;;;;;;5050148;28;20021;-73
2021/03/10 04:50:53;;;;;;;18.42;8.38;;;1.60;99.90;;;;;;5048548;28;20471;-73
2021/03/10 04:53:18;;;;;;;19.42;10.30;;;1.60;99.90;;;;;;5046874;28;20047;-73
2021/03/10 04:55:44;;;;;;;21.80;9.20;;;1.60;99.90;;;;;;5044473;28;20047;-73
2021/03/10 04:58:10;;;;;;;17.95;10.02;;;1.60;99.90;;;;;;5049568;28;20024;-73
2021/03/10 05:00:35;;;;;;;16.33;9.35;;;1.60;99.90;;;;;;5048093;28;20509;-73
2021/03/10 05:03:01;;;;;;;19.17;9.55;;;1.60;99.90;;;;;;5048273;28;20032;-73
2021/03/10 05:05:27;;;;;;;16.48;9.13;;;1.50;99.90;;;;;;5082645;28;20404;-73
2021/03/10 05:07:52;;;;;;;19.98;9.93;;;1.50;99.90;;;;;;5049871;28;20040;-73
2021/03/10 05:10:18;;;;;;;17.30;9.40;;;1.50;99.90;;;;;;5050015;28;20043;-73
2021/03/10 05:12:44;;;;;;;19.25;8.98;;;1.50;99.90;;;;;;5050149;28;20029;-73
2021/03/10 05:15:10;;;;;;;20.25;9.45;;;1.50;99.90;;;;;;5050288;28;20037;-73
2021/03/10 05:17:37;;;;;;;17.35;8.60;;;1.50;99.90;;;;;;5049756;28;20024;-73
2021/03/10 05:20:05;;;;;;;18.52;9.18;;;1.50;99.90;;;;;;5050412;28;20039;-73
2021/03/10 05:22:32;;;;;;;19.42;9.23;;;1.50;99.90;;;;;;5049917;28;20036;-73
2021/03/10 05:24:57;;;;;;;19.60;9.93;;;1.50;99.90;;;;;;5049388;28;20104;-73
2021/03/10 05:27:24;;;;;;;17.80;9.38;;;1.50;99.90;;;;;;5049757;28;20048;-73
2021/03/10 05:29:50;;;;;;;17.60;9.70;;;1.50;99.90;;;;;;5049866;28;20087;-73
2021/03/10 05:32:15;;;;;;;17.70;9.95;;;1.50;99.90;;;;;;5049704;28;20644;-73
2021/03/10 05:34:41;;;;;;;21.08;9.98;;;1.50;99.90;;;;;;5032535;28;20033;-73
2021/03/10 05:37:07;;;;;;;21.42;10.73;;;1.60;99.90;;;;;;5049615;28;20044;-73
2021/03/10 05:39:32;;;;;;;19.30;9.80;;;1.60;99.90;;;;;;5050121;28;20068;-73
2021/03/10 05:41:59;;;;;;;20.17;10.75;;;1.50;99.90;;;;;;5049605;28;20376;-73
2021/03/10 05:44:26;;;;;;;20.00;10.10;;;1.50;99.90;;;;;;5050137;28;20026;-73
2021/03/10 05:46:53;;;;;;;20.80;10.23;;;1.50;99.90;;;;;;5049699;28;20071;-73
2021/03/10 05:49:19;;;;;;;22.73;11.32;;;1.50;99.90;;;;;;5049828;28;20082;-73
2021/03/10 05:51:45;;;;;;;23.00;10.57;;;1.50;99.90;;;;;;5049693;28;20041;-73
2021/03/10 05:54:13;;;;;;;22.52;10.73;;;1.50;99.90;;;;;;5048314;28;20040;-73
2021/03/10 05:56:42;;;;;;;22.00;10.07;;;1.50;99.90;;;;;;5049712;28;20061;-73
2021/03/10 05:59:08;;;;;;;20.30;10.32;;;1.50;99.90;;;;;;5049702;28;20021;-73
2021/03/10 06:01:34;;;;;;;22.08;10.57;;;1.50;99.90;;;;;;5049455;28;20448;-73
2021/03/10 06:04:02;;;;;;;19.65;10.65;;;1.50;99.90;;;;;;5053372;28;20025;-73
2021/03/10 06:06:36;;;;;;;22.23;11.02;;;1.60;99.90;;;;;;5053240;28;20130;-73
2021/03/10 06:09:16;;;;;;;23.75;11.10;;;1.50;99.90;;;;;;5053464;28;20029;-73
2021/03/10 06:11:58;;;;;;;19.58;9.80;;;1.50;99.90;;;;;;5043374;28;20033;-73
2021/03/10 06:14:25;;;;;;;20.92;10.90;;;1.50;99.90;;;;;;5052687;28;20492;-73
2021/03/10 06:17:05;;;;;;;22.50;10.68;;;1.50;99.90;;;;;;5052874;28;20036;-73
2021/03/10 06:19:51;;;;;;;27.38;12.52;;;1.50;99.90;;;;;;5053838;28;20041;-73
2021/03/10 06:22:17;;;;;;;23.95;10.93;;;1.60;99.90;;;;;;5050457;28;20116;-73
2021/03/10 06:24:44;;;;;;;25.67;12.25;;;1.60;99.90;;;;;;5053589;28;20029;-73
2021/03/10 06:27:09;;;;;;;22.10;11.65;;;1.60;99.90;;;;;;5052816;28;20025;-73
2021/03/10 06:29:36;;;;;;;26.42;12.68;;;1.70;99.90;;;;;;5050817;28;20625;-73
2021/03/10 06:32:08;;;;;;;27.55;11.75;;;1.70;99.90;;;;;;5052445;28;20028;-74
2021/03/10 06:34:51;;;;;;;22.42;10.82;;;1.70;99.90;;;;;;5052958;28;20025;-73
2021/03/10 06:37:36;;;;;;;22.38;11.05;;;1.70;99.90;;;;;;5049432;28;20041;-74
2021/03/10 06:40:16;;;;;;;19.60;10.05;;;1.70;99.90;;;;;;5051150;28;20029;-73
2021/03/10 06:42:52;;;;;;;24.52;9.82;;;1.80;99.90;;;;;;5050643;28;20040;-73
2021/03/10 06:45:32;;;;;;;21.42;9.95;;;1.80;99.90;;;;;;5049759;28;20079;-73
2021/03/10 06:47:58;;;;;;;19.67;9.13;;;1.80;99.90;;;;;;5052187;28;20021;-74
2021/03/10 06:50:36;;;;;;;19.40;10.07;;;1.80;99.90;;;;;;5052400;28;20038;-74
2021/03/10 06:53:03;;;;;;;20.77;9.95;;;2.00;99.90;;;;;;5049268;28;20061;-73
2021/03/10 06:55:46;;;;;;;19.77;9.18;;;1.90;99.90;;;;;;5052666;28;20487;-74
2021/03/10 06:58:22;;;;;;;18.35;9.05;;;1.90;99.90;;;;;;5051140;28;20029;-74
2021/03/10 07:00:58;;;;;;;20.50;9.73;;;1.90;99.90;;;;;;5051426;28;20033;-74
2021/03/10 07:03:24;;;;;;;23.05;11.05;;;1.90;99.90;;;;;;5051609;28;20029;-74
2021/03/10 07:05:50;;;;;;;27.35;12.30;;;2.00;99.90;;;;;;5052316;28;20051;-74
2021/03/10 07:08:16;;;;;;;24.70;11.63;;;2.00;99.90;;;;;;5051041;28;20438;-74
2021/03/10 07:10:46;;;;;;;24.42;10.88;;;2.00;99.90;;;;;;5049666;28;20048;-74
2021/03/10 07:13:13;;;;;;;25.80;11.73;;;2.00;99.90;;;;;;5051710;28;20040;-74
2021/03/10 07:15:40;;;;;;;25.17;11.13;;;2.00;99.90;;;;;;5048307;28;20063;-74
2021/03/10 07:18:07;;;;;;;22.65;11.63;;;2.00;99.90;;;;;;5048315;28;20090;-74
2021/03/10 07:20:33;;;;;;;23.45;10.45;;;2.00;99.90;;;;;;5051012;28;20041;-74
2021/03/10 07:23:08;;;;;;;21.40;10.57;;;1.90;99.90;;;;;;5051452;28;20039;-74
2021/03/10 07:25:35;;;;;;;20.25;9.25;;;1.90;99.90;;;;;;5050752;28;20025;-74
2021/03/10 07:28:05;;;;;;;18.38;9.40;;;1.90;99.90;;;;;;5050420;28;20108;-74
2021/03/10 07:30:42;;;;;;;17.23;8.55;;;1.80;99.90;;;;;;5050392;28;20033;-74
2021/03/10 07:33:13;;;;;;;21.45;9.30;;;1.80;99.90;;;;;;5050742;28;20078;-74
2021/03/10 07:36:02;;;;;;;17.70;8.95;;;1.80;99.90;;;;;;5049564;28;20123;-74
2021/03/10 07:38:35;;;;;;;19.90;9.57;;;1.70;99.90;;;;;;5047869;28;20028;-74
2021/03/10 07:41:04;;;;;;;17.50;9.05;;;1.70;99.90;;;;;;5051106;28;20095;-74
2021/03/10 07:43:48;;;;;;;19.92;9.93;;;1.70;99.90;;;;;;5051704;28;20033;-74
2021/03/10 07:46:34;;;;;;;22.70;10.68;;;1.70;99.90;;;;;;5050572;28;20112;-74
2021/03/10 07:49:03;;;;;;;20.33;9.55;;;1.70;99.90;;;;;;5049334;28;20104;-74
2021/03/10 07:51:32;;;;;;;23.60;10.20;;;1.70;99.90;;;;;;5049716;28;20119;-74
2021/03/10 07:53:59;;;;;;;23.90;11.32;;;1.80;99.90;;;;;;5051195;28;20112;-74
2021/03/10 07:56:33;;;;;;;25.15;12.02;;;1.80;99.90;;;;;;5050332;28;20523;-74
2021/03/10 07:59:12;;;;;;;21.88;10.57;;;1.80;99.90;;;;;;5047571;28;20040;-74
2021/03/10 08:01:39;;;;;;;27.33;11.20;;;1.90;99.90;;;;;;5047789;28;20037;-74
2021/03/10 08:04:10;;;;;;;23.42;10.30;;;2.00;99.90;;;;;;5049694;28;20021;-74
2021/03/10 08:07:00;;;;;;;26.75;11.65;;;2.00;99.90;;;;;;5047963;28;20021;-74
2021/03/10 08:09:31;;;;;;;29.17;12.77;;;2.10;99.90;;;;;;5049839;28;20029;-74
2021/03/10 08:12:09;;;;;;;29.90;11.82;;;2.10;99.90;;;;;;5050437;28;20037;-74
2021/03/10 08:14:37;;;;;;;31.50;13.57;;;2.20;99.90;;;;;;5050954;28;20025;-74
2021/03/10 08:17:07;;;;;;;28.70;12.23;;;2.30;99.90;;;;;;5045938;28;20025;-74
2021/03/10 08:19:33;;;;;;;31.75;13.48;;;2.30;99.90;;;;;;5048382;28;20130;-74
2021/03/10 08:21:59;;;;;;;27.67;11.27;;;2.40;99.90;;;;;;5047175;28;20498;-75
2021/03/10 08:24:26;;;;;;;24.13;11.02;;;2.50;99.90;;;;;;5048895;28;20118;-74
2021/03/10 08:26:57;;;;;;;24.50;11.60;;;2.60;99.90;;;;;;5048035;28;20021;-74
2021/03/10 08:29:24;;;;;;;26.52;11.40;;;2.60;99.90;;;;;;5048060;28;20029;-73
2021/03/10 08:31:54;;;;;;;29.35;12.70;;;2.70;99.90;;;;;;5047069;28;20163;-74
2021/03/10 08:34:49;;;;;;;24.80;11.10;;;2.80;99.90;;;;;;5048781;28;20021;-73
2021/03/10 08:37:16;;;;;;;21.08;10.20;;;2.90;99.90;;;;;;5037334;28;20045;-74
2021/03/10 08:39:44;;;;;;;24.00;10.80;;;3.00;99.90;;;;;;5049437;28;20171;-74
2021/03/10 08:42:10;;;;;;;21.10;9.80;;;3.10;99.90;;;;;;5045794;28;20031;-74
2021/03/10 08:44:44;;;;;;;23.30;10.55;;;3.20;99.90;;;;;;5050143;28;20025;-74
2021/03/10 08:47:13;;;;;;;27.05;12.85;;;3.30;99.90;;;;;;5077582;28;20118;-73
2021/03/10 08:49:38;;;;;;;30.23;13.35;;;3.50;99.90;;;;;;5043915;28;20395;-74
2021/03/10 08:52:09;;;;;;;30.73;13.18;;;3.50;99.90;;;;;;5047612;28;20038;-74
2021/03/10 08:54:49;;;;;;;40.00;15.73;;;3.70;99.90;;;;;;5044465;28;20040;-74
2021/03/10 08:57:16;;;;;;;31.92;13.52;;;3.70;99.90;;;;;;5074974;28;20128;-74
2021/03/10 08:59:42;;;;;;;27.95;13.43;;;3.70;99.90;;;;;;5049244;28;20028;-74
2021/03/10 09:02:08;;;;;;;28.27;12.98;;;3.80;99.90;;;;;;5076635;28;20044;-74
2021/03/10 09:04:34;;;;;;;28.63;12.65;;;3.80;99.90;;;;;;5048688;28;20025;-74
2021/03/10 09:07:00;;;;;;;30.88;12.70;;;3.90;99.90;;;;;;5046246;28;20028;-74
2021/03/10 09:09:30;;;;;;;28.85;12.20;;;4.00;99.90;;;;;;5048003;28;20491;-74
2021/03/10 09:11:57;;;;;;;29.63;13.45;;;4.10;99.90;;;;;;5046419;28;20025;-74
2021/03/10 09:14:52;;;;;;;30.77;13.20;;;4.10;99.90;;;;;;5028122;28;20574;-74
2021/03/10 09:17:36;;;;;;;30.02;12.73;;;4.20;99.90;;;;;;5046693;28;20040;-74
2021/03/10 09:20:10;;;;;;;27.75;11.80;;;4.10;99.90;;;;;;5079261;28;20443;-74
2021/03/10 09:22:45;;;;;;;32.00;13.73;;;4.10;99.90;;;;;;5047783;28;20071;-74
2021/03/10 09:25:36;;;;;;;31.80;13.13;;;4.00;99.90;;;;;;5034480;28;20040;-74
2021/03/10 09:28:10;;;;;;;33.40;12.98;;;4.00;99.90;;;;;;5048739;28;20120;-74
2021/03/10 09:30:48;;;;;;;26.27;12.63;;;4.00;99.90;;;;;;5050476;28;20372;-74
2021/03/10 09:33:18;;;;;;;28.65;12.30;;;3.90;99.90;;;;;;5056165;28;20029;-74
2021/03/10 09:35:52;;;;;;;28.67;13.00;;;3.90;99.90;;;;;;5054083;28;20025;-74
2021/03/10 09:38:19;;;;;;;28.88;12.75;;;3.90;99.90;;;;;;5052731;28;20098;-73
2021/03/10 09:40:49;;;;;;;30.20;11.73;;;3.90;99.90;;;;;;5047292;28;20060;-73
2021/03/10 09:43:17;;;;;;;32.90;13.75;;;3.90;99.90;;;;;;5081193;28;20082;-73
2021/03/10 09:45:44;;;;;;;31.70;13.23;;;3.90;99.90;;;;;;5047460;28;20021;-73
2021/03/10 09:48:14;;;;;;;31.50;13.95;;;3.90;99.90;;;;;;5047811;28;20678;-73
2021/03/10 09:50:48;;;;;;;26.95;12.15;;;3.90;99.90;;;;;;5086444;28;20518;-73
2021/03/10 09:53:25;;;;;;;34.45;12.95;;;3.80;99.90;;;;;;5051370;28;20496;-73
2021/03/10 09:56:09;;;;;;;36.85;13.40;;;3.90;99.90;;;;;;5047712;28;20035;-75
2021/03/10 09:58:49;;;;;;;31.10;13.65;;;4.00;99.90;;;;;;5044187;28;20033;-75
2021/03/10 10:01:19;;;;;;;30.67;13.10;;;4.10;99.90;;;;;;5040422;28;20112;-75
2021/03/10 10:03:46;;;;;;;31.50;13.00;;;4.20;99.90;;;;;;5046620;28;20109;-74
2021/03/10 10:06:14;;;;;;;33.25;13.88;;;4.30;99.90;;;;;;5026888;28;20040;-74
2021/03/10 10:08:45;;;;;;;31.73;13.40;;;4.30;99.90;;;;;;5043598;28;20557;-74
2021/03/10 10:11:12;;;;;;;34.10;13.38;;;4.40;99.90;;;;;;5045657;28;20078;-74
2021/03/10 10:13:42;;;;;;;30.92;12.55;;;4.60;99.90;;;;;;5045628;28;20437;-74
2021/03/10 10:16:09;;;;;;;34.50;13.15;;;4.70;99.90;;;;;;5043381;28;20055;-74
2021/03/10 10:18:36;;;;;;;36.60;13.73;;;4.80;99.90;;;;;;5044467;28;20025;-74
2021/03/10 10:21:02;;;;;;;28.73;12.10;;;4.90;99.90;;;;;;5043984;28;20104;-74
2021/03/10 10:23:31;;;;;;;30.25;12.20;;;4.90;99.90;;;;;;5043643;28;20033;-74
2021/03/10 10:26:09;;;;;;;30.02;12.65;;;5.00;99.90;;;;;;5042033;28;20025;-74
2021/03/10 10:28:37;;;;;;;30.25;11.93;;;5.10;99.90;;;;;;5043119;28;20070;-74
2021/03/10 10:31:05;;;;;;;26.60;12.35;;;5.00;99.90;;;;;;5010441;28;20021;-74
2021/03/10 10:33:35;;;;;;;28.85;11.95;;;5.10;99.90;;;;;;5043883;28;20075;-73
2021/03/10 10:36:01;;;;;;;29.58;12.13;;;5.20;99.90;;;;;;5044156;28;20435;-75
2021/03/10 10:38:27;;;;;;;27.73;11.32;;;5.40;99.90;;;;;;5027102;28;20025;-74
2021/03/10 10:40:56;;;;;;;26.50;10.75;;;5.50;99.90;;;;;;5027338;28;20021;-74
2021/03/10 10:43:22;;;;;;;21.63;11.02;;;5.60;99.90;;;;;;5041156;28;20037;-74
2021/03/10 10:45:52;;;;;;;20.67;9.07;;;5.70;99.90;;;;;;5044020;28;20110;-74
2021/03/10 10:48:19;;;;;;;20.92;8.82;;;5.70;99.90;;;;;;5077104;28;20446;-74
2021/03/10 10:50:57;;;;;;;16.30;7.88;;;5.70;99.90;;;;;;5043515;28;20032;-74
2021/03/10 10:53:30;;;;;;;14.93;7.20;;;5.70;99.90;;;;;;5080485;28;20076;-74
2021/03/10 10:55:55;;;;;;;13.85;6.97;;;5.70;99.90;;;;;;5049358;28;20072;-73
2021/03/10 10:58:22;;;;;;;14.85;7.03;;;5.70;99.90;;;;;;5048038;28;20033;-74
2021/03/10 11:00:47;;;;;;;13.52;7.00;;;5.80;99.90;;;;;;5079659;28;20033;-74
2021/03/10 11:03:14;;;;;;;13.10;6.30;;;5.80;99.90;;;;;;5081334;28;20381;-74
2021/03/10 11:05:48;;;;;;;16.15;7.75;;;5.90;99.90;;;;;;5047795;28;20076;-74
2021/03/10 11:08:16;;;;;;;14.50;7.00;;;6.00;99.90;;;;;;5079247;28;20025;-74
2021/03/10 11:10:43;;;;;;;12.68;6.82;;;6.10;99.90;;;;;;5079928;28;20033;-74
2021/03/10 11:13:09;;;;;;;12.55;6.60;;;6.20;99.90;;;;;;5047688;28;20033;-74
2021/03/10 11:15:48;;;;;;;17.02;7.35;;;6.40;99.90;;;;;;5079543;28;20033;-74
2021/03/10 11:18:46;;;;;;;14.57;7.43;;;6.50;99.90;;;;;;5034815;28;20435;-74
2021/03/10 11:21:14;;;;;;;15.63;6.72;;;6.50;99.90;;;;;;5047447;28;20036;-74
2021/03/10 11:23:40;;;;;;;14.13;7.10;;;6.60;99.90;;;;;;5048308;28;20029;-74
2021/03/10 11:26:06;;;;;;;14.35;6.85;;;6.60;99.90;;;;;;5048062;28;20021;-74
2021/03/10 11:28:33;;;;;;;15.07;6.97;;;6.70;99.90;;;;;;5046825;28;20033;-74
2021/03/10 11:30:59;;;;;;;14.45;6.68;;;6.80;99.90;;;;;;5076846;28;20108;-74
2021/03/10 11:33:28;;;;;;;15.73;7.78;;;6.90;99.90;;;;;;5080328;28;20033;-73
2021/03/10 11:35:55;;;;;;;14.02;7.03;;;6.80;99.90;;;;;;5046352;28;20785;-74
2021/03/10 11:38:20;;;;;;;17.73;8.30;;;6.60;99.90;;;;;;5038643;28;20033;-74
2021/03/10 11:40:49;;;;;;;19.98;9.20;;;6.50;99.90;;;;;;5070531;28;20488;-74
2021/03/10 11:43:16;;;;;;;15.13;7.65;;;6.50;99.90;;;;;;5045780;28;20024;-73
2021/03/10 11:45:42;;;;;;;16.60;7.55;;;6.40;99.90;;;;;;5046274;28;20025;-73
2021/03/10 11:48:09;;;;;;;17.25;8.40;;;6.30;99.90;;;;;;5044103;28;20048;-73
2021/03/10 11:50:37;;;;;;;19.83;8.52;;;6.30;99.90;;;;;;5047159;28;20071;-73
2021/03/10 11:53:04;;;;;;;22.25;9.52;;;6.30;99.90;;;;;;5047128;28;20037;-73
2021/03/10 11:55:31;;;;;;;37.00;13.32;;;6.20;99.90;;;;;;5047457;28;20029;-73
2021/03/10 11:57:56;;;;;;;26.55;11.70;;;6.20;99.90;;;;;;5047491;28;20028;-73
2021/03/10 12:00:23;;;;;;;19.23;8.68;;;6.30;99.90;;;;;;5045246;28;20033;-73
2021/03/10 12:02:56;;;;;;;18.27;8.32;;;6.40;99.90;;;;;;5039921;28;20052;-73
2021/03/10 12:05:42;;;;;;;19.48;8.35;;;6.40;99.90;;;;;;5030015;28;20587;-73
2021/03/10 12:08:08;;;;;;;20.58;9.45;;;6.40;99.90;;;;;;5041132;28;20112;-73
2021/03/10 12:10:37;;;;;;;18.48;9.30;;;6.30;99.90;;;;;;5045413;28;20442;-73
2021/03/10 12:13:04;;;;;;;19.65;8.88;;;6.30;99.90;;;;;;5042946;28;20053;-73
2021/03/10 12:15:30;;;;;;;20.50;8.88;;;6.20;99.90;;;;;;5043575;28;20166;-73
2021/03/10 12:17:56;;;;;;;19.77;9.30;;;6.20;99.90;;;;;;5046869;28;20499;-73
2021/03/10 12:20:22;;;;;;;18.98;8.75;;;6.20;99.90;;;;;;5044547;28;20113;-73
2021/03/10 12:22:47;;;;;;;19.65;9.55;;;6.00;99.90;;;;;;5074228;28;20143;-73
2021/03/10 12:25:13;;;;;;;20.33;9.05;;;5.90;99.90;;;;;;5047067;28;20040;-73
2021/03/10 12:27:39;;;;;;;21.25;9.00;;;5.80;99.90;;;;;;5044631;28;20029;-73
2021/03/10 12:30:06;;;;;;;22.33;8.70;;;5.80;99.90;;;;;;5046468;28;20424;-73
2021/03/10 12:32:35;;;;;;;22.23;9.30;;;5.90;99.90;;;;;;5044980;28;20029;-73
2021/03/10 12:35:01;;;;;;;19.38;9.57;;;5.90;99.90;;;;;;5042343;28;20384;-73
2021/03/10 12:37:27;;;;;;;23.17;10.10;;;6.00;99.90;;;;;;5039164;28;20083;-73
2021/03/10 12:39:53;;;;;;;19.77;9.15;;;6.20;99.90;;;;;;5044438;28;20033;-73
2021/03/10 12:42:19;;;;;;;21.40;9.63;;;6.40;99.90;;;;;;5045184;28;20025;-73
2021/03/10 12:44:45;;;;;;;21.02;9.20;;;6.50;99.90;;;;;;5046430;28;20055;-73
2021/03/10 12:47:11;;;;;;;25.20;10.25;;;6.60;99.90;;;;;;5042813;28;21060;-73
2021/03/10 12:49:37;;;;;;;17.58;8.80;;;6.60;99.90;;;;;;5042021;28;20060;-73
2021/03/10 12:52:03;;;;;;;19.40;8.27;;;6.70;99.90;;;;;;5043415;28;20510;-74
2021/03/10 12:54:29;;;;;;;18.05;8.73;;;6.70;99.90;;;;;;5040822;28;20102;-74